Latest Weather Observations for Redcliffe

IDQ60801

Issued at 11:02 pm EST Sunday 7 February 2016 (issued every 30 minutes, with the page automatically refreshed every 10 minutes)

About weather observations | Map of weather stations | Latest weather observations for QLD | Other Formats
Station Details ID: 040958 Name: REDCLIFFE Lat: -27.22 Lon: 153.09 Height: 12.6 m
Data from the previous 72 hours. | See also: Recent months at Redcliffe
Date/Time
EST
Temp
°C
App
Temp
°C
Dew
Point
Rel
Hum
%
Delta-T
°C
Wind Press
QNH
hPa
Press
MSL
hPa
Rain
since 9 am
mm
Dir
 
Spd
km/h
Gust
km/h
Spd
kts
Gust
kts
07/11:00pm 23.1 19.6 16.6 67 4.0 S 30 35 16 19 1015.4 1015.3 0.0
07/10:30pm 23.5 20.1 16.8 66 4.1 S 30 33 16 18 1015.3 1015.2 0.0
07/10:00pm 23.7 20.0 17.0 66 4.1 S 32 35 17 19 1015.2 1015.1 0.0
07/09:30pm 24.0 19.9 17.3 66 4.2 SSE 35 41 19 22 1014.8 1014.7 0.0
07/09:00pm 24.4 20.0 17.6 66 4.2 SSE 37 41 20 22 1015.0 1014.9 0.0
07/08:30pm 24.7 20.4 17.9 66 4.3 SSE 37 44 20 24 1014.6 1014.5 0.0
07/08:00pm 24.9 19.5 17.1 62 4.8 SSE 41 48 22 26 1014.4 1014.3 0.0
07/07:30pm 25.1 20.0 16.8 60 5.1 SSE 39 46 21 25 1014.6 1014.5 0.0
07/07:00pm 25.3 20.0 16.4 57 5.5 SSE 39 46 21 25 1014.1 1014.0 0.0
07/06:30pm 25.2 19.6 16.4 58 5.4 SSE 41 48 22 26 1013.6 1013.5 0.0
07/06:00pm 25.4 19.9 16.8 59 5.3 SSE 41 46 22 25 1013.3 1013.2 0.0
07/05:30pm 25.4 19.7 17.3 61 5.0 SSE 43 48 23 26 1012.8 1012.7 0.0
07/05:00pm 25.5 19.3 16.4 57 5.6 SSE 44 52 24 28 1012.5 1012.4 0.0
07/04:30pm 25.5 20.3 16.6 58 5.5 SE 39 44 21 24 1012.5 1012.4 0.0
07/04:00pm 25.4 22.1 18.3 65 4.5 SSE 33 39 18 21 1012.6 1012.5 0.0
07/03:30pm 25.2 20.2 17.9 64 4.6 SSE 41 44 22 24 1012.4 1012.3 0.0
07/03:00pm 25.8 20.7 18.5 64 4.6 SSE 43 52 23 28 1012.2 1012.1 0.0
07/02:30pm 25.7 22.1 18.6 65 4.5 SSE 35 39 19 21 1012.6 1012.5 0.0
07/02:00pm 25.8 21.4 18.5 64 4.6 SSE 39 44 21 24 1012.8 1012.7 0.0
07/01:30pm 25.9 21.2 18.6 64 4.6 SE 41 48 22 26 1012.9 1012.8 0.0
07/01:00pm 26.8 22.0 19.2 63 4.9 SSE 43 48 23 26 1012.7 1012.6 0.0
07/12:30pm 26.4 22.2 18.8 63 4.9 SE 39 44 21 24 1012.9 1012.8 0.0
07/12:00pm 27.8 24.5 20.1 63 5.0 SSE 37 43 20 23 1013.0 1012.9 0.0
07/11:30am 26.6 22.7 17.9 59 5.5 SSE 35 41 19 22 1013.0 1012.9 0.0
07/11:00am 26.7 23.2 18.8 62 5.1 SSE 35 41 19 22 1012.9 1012.8 0.0
07/10:30am 25.9 21.4 18.3 63 4.8 SSE 39 46 21 25 1013.2 1013.1 0.0
07/10:00am 26.2 22.5 18.3 61 5.0 SSE 35 41 19 22 1013.4 1013.3 0.0
07/09:30am 25.6 22.1 18.0 63 4.8 SSE 33 39 18 21 1013.4 1013.3 0.0
07/09:00am 26.0 22.8 18.7 64 4.7 SSE 33 41 18 22 1013.2 1013.1 2.4
07/08:30am 24.9 20.5 17.6 64 4.6 S 37 41 20 22 1013.2 1013.1 2.4
07/08:00am 24.8 20.7 18.3 67 4.1 SSE 37 43 20 23 1013.0 1012.9 2.4
07/07:30am 24.3 21.2 18.9 72 3.4 S 33 39 18 21 1012.9 1012.8 2.4
07/07:00am 23.5 20.9 18.6 74 3.1 S 30 35 16 19 1013.0 1012.9 2.4
07/06:30am 22.9 22.3 18.9 78 2.5 SSW 20 32 11 17 1012.8 1012.7 2.4
07/06:00am 22.3 20.9 18.7 80 2.3 S 24 37 13 20 1012.5 1012.4 2.4
07/05:30am 22.4 20.9 18.6 79 2.4 S 24 33 13 18 1012.1 1012.0 2.4
07/05:00am 22.7 19.9 19.1 80 2.3 S 32 41 17 22 1011.7 1011.6 2.4
07/04:30am 22.8 19.5 19.2 80 2.3 S 35 44 19 24 1011.5 1011.4 2.4
07/04:00am 22.9 20.3 19.5 81 2.2 S 32 37 17 20 1011.2 1011.1 2.4
07/03:30am 22.9 20.5 19.9 83 1.9 S 32 37 17 20 1011.3 1011.2 2.4
07/03:00am 22.9 22.8 19.9 83 1.9 SSW 20 30 11 16 1011.2 1011.1 2.4
07/02:30am 23.0 23.0 20.1 84 1.9 S 20 28 11 15 1011.1 1011.0 2.4
07/02:00am 23.0 23.5 20.1 84 1.9 SSW 17 24 9 13 1011.2 1011.1 2.4
07/01:30am 22.9 22.5 20.1 84 1.8 S 22 26 12 14 1011.2 1011.1 2.4
07/01:00am 22.9 22.5 20.1 84 1.8 S 22 26 12 14 1011.2 1011.1 2.4
07/12:30am 22.9 23.0 19.9 83 1.9 S 19 24 10 13 1011.4 1011.3 2.4
07/12:00am 23.1 22.7 20.2 84 1.9 S 22 28 12 15 1011.8 1011.7 2.4
 
Date/Time
EST
Temp
°C
App
Temp
°C
Dew
Point
Rel
Hum
%
Delta-T
°C
Wind Press
QNH
hPa
Press
MSL
hPa
Rain
since 9 am
mm
Dir
 
Spd
km/h
Gust
km/h
Spd
kts
Gust
kts
06/11:30pm 23.0 22.2 20.1 84 1.9 S 24 30 13 16 1012.1 1012.0 2.4
06/11:00pm 23.1 22.3 20.1 83 1.9 S 24 32 13 17 1012.5 1012.4 2.4
06/10:30pm 23.5 20.6 20.0 81 2.3 SSE 35 41 19 22 1012.9 1012.8 2.4
06/10:00pm 23.6 21.6 19.9 80 2.4 SSE 30 44 16 24 1013.1 1013.0 2.4
06/09:30pm 23.8 21.8 20.7 83 2.0 SSE 32 41 17 22 1012.9 1012.8 2.4
06/09:00pm 23.3 22.0 20.6 85 1.8 SSE 28 35 15 19 1012.5 1012.4 2.2
06/08:30pm 23.8 21.9 20.1 80 2.4 SSE 30 39 16 21 1012.4 1012.3 2.0
06/08:00pm 24.8 23.2 20.1 75 3.1 SE 28 33 15 18 1011.8 1011.7 2.0
06/07:30pm 24.4 21.2 20.3 78 2.7 SSE 37 43 20 23 1011.5 1011.4 2.0
06/07:00pm 24.8 21.9 20.1 75 3.1 SE 35 41 19 22 1011.1 1011.0 2.0
06/06:30pm 24.4 21.2 20.3 78 2.7 SE 37 43 20 23 1010.7 1010.6 2.0
06/06:00pm 23.8 21.1 20.5 82 2.1 SSE 35 41 19 22 1010.4 1010.3 1.6
06/05:30pm 23.3 22.1 20.8 86 1.6 SSE 28 37 15 20 1010.0 1009.9 1.6
06/05:00pm 24.9 22.6 20.2 75 3.1 SSE 32 35 17 19 1009.7 1009.6 0.0
06/04:43pm 24.8 21.2 19.4 72 3.5 SSE 37 48 20 26 1009.6 1009.5 0.0
06/04:30pm 26.2 23.2 19.1 65 4.6 SE 33 39 18 21 1009.4 1009.3 0.0
06/04:00pm 26.3 23.8 19.7 67 4.3 SE 32 37 17 20 1009.3 1009.2 0.0
06/03:30pm 26.8 23.5 19.2 63 4.9 SE 35 41 19 22 1009.3 1009.2 0.0
06/03:00pm 26.8 24.3 19.7 65 4.6 SE 32 37 17 20 1009.2 1009.1 0.0
06/02:30pm 27.1 23.8 19.2 62 5.1 SE 35 41 19 22 1009.2 1009.1 0.0
06/02:00pm 27.3 24.2 20.4 66 4.5 SE 37 41 20 22 1009.5 1009.4 0.0
06/01:30pm 27.4 24.7 19.7 63 5.0 SE 33 41 18 22 1009.7 1009.6 0.0
06/01:00pm 27.5 24.9 19.8 63 5.0 SE 33 39 18 21 1009.8 1009.7 0.0
06/12:30pm 27.6 24.8 19.4 61 5.3 SE 33 39 18 21 1010.0 1009.9 0.0
06/12:00pm 27.4 23.7 19.2 61 5.3 SE 37 43 20 23 1010.3 1010.2 0.0
06/11:30am 27.5 24.5 19.8 63 5.0 SE 35 41 19 22 1010.5 1010.4 0.0
06/11:00am 26.7 24.0 20.5 69 4.1 SE 35 39 19 21 1010.8 1010.7 0.0
06/10:30am 26.9 24.0 20.0 66 4.5 SE 35 39 19 21 1011.0 1010.9 0.0
06/10:00am 26.3 24.7 20.8 71 3.6 SSE 30 35 16 19 1011.2 1011.1 0.0
06/09:30am 24.6 22.4 20.7 79 2.6 SSE 33 41 18 22 1011.2 1011.1 0.0
06/09:00am 23.6 21.3 20.5 83 2.0 SSE 33 41 18 22 1011.2 1011.1 4.6
06/08:30am 24.0 22.1 20.1 79 2.5 S 30 35 16 19 1010.9 1010.8 4.2
06/08:00am 23.2 21.5 21.3 89 1.2 S 32 37 17 20 1010.9 1010.8 4.2
06/07:30am 22.3 20.4 20.2 88 1.4 SSE 30 37 16 20 1010.9 1010.8 3.0
06/07:00am 22.7 20.0 20.4 87 1.5 S 35 41 19 22 1010.4 1010.3 2.4
06/06:30am 22.0 19.0 19.9 88 1.3 S 35 43 19 23 1010.2 1010.1 2.4
06/06:00am 22.5 20.1 19.9 85 1.7 S 32 41 17 22 1009.9 1009.8 2.2
06/05:30am 22.4 19.4 19.8 85 1.7 S 35 43 19 23 1009.3 1009.2 2.2
06/05:00am 22.2 18.7 19.6 85 1.7 S 37 41 20 22 1008.8 1008.7 2.2
06/04:30am 22.4 18.6 19.8 85 1.7 S 39 46 21 25 1008.8 1008.7 2.2
06/04:00am 22.1 18.2 19.6 86 1.6 S 39 48 21 26 1008.4 1008.3 2.2
06/03:30am 22.0 18.5 19.5 86 1.6 S 37 44 20 24 1008.4 1008.3 2.2
06/03:00am 22.2 18.4 19.7 86 1.6 SSE 39 48 21 26 1008.3 1008.2 1.4
06/02:30am 21.9 18.9 19.8 88 1.3 S 35 41 19 22 1008.5 1008.4 1.2
06/02:00am 22.4 19.2 19.4 83 1.9 S 35 41 19 22 1008.9 1008.8 1.0
06/01:30am 23.1 18.5 18.8 77 2.7 SSE 41 50 22 27 1009.1 1009.0 0.6
06/01:00am 23.4 18.5 19.1 77 2.7 SSE 43 50 23 27 1009.1 1009.0 0.6
06/12:38am 23.6 19.0 18.9 75 3.0 SSE 41 59 22 32 1009.2 1009.1 0.6
06/12:30am 23.8 19.2 18.9 74 3.1 SSE 41 50 22 27 1009.3 1009.2 0.6
06/12:00am 24.0 18.9 18.6 72 3.4 SSE 43 50 23 27 1009.4 1009.3 0.6
 
Date/Time
EST
Temp
°C
App
Temp
°C
Dew
Point
Rel
Hum
%
Delta-T
°C
Wind Press
QNH
hPa
Press
MSL
hPa
Rain
since 9 am
mm
Dir
 
Spd
km/h
Gust
km/h
Spd
kts
Gust
kts
05/11:30pm 24.2 19.2 18.8 72 3.4 SSE 43 48 23 26 1009.9 1009.8 0.6
05/11:00pm 24.2 19.6 18.8 72 3.4 S 41 52 22 28 1010.4 1010.3 0.6
05/10:30pm 24.2 20.0 18.8 72 3.4 S 39 50 21 27 1010.5 1010.4 0.6
05/10:00pm 24.2 20.1 19.1 73 3.3 S 39 50 21 27 1010.7 1010.6 0.6
05/09:30pm 24.4 20.3 19.2 73 3.3 S 39 46 21 25 1010.6 1010.5 0.6
05/09:00pm 24.4 19.9 19.0 72 3.4 SSE 41 52 22 28 1010.7 1010.6 0.6
05/08:30pm 25.0 19.7 19.4 71 3.6 SSE 46 54 25 29 1010.3 1010.2 0.6
05/08:00pm 24.8 19.6 19.6 73 3.4 SSE 46 59 25 32 1010.0 1009.9 0.6
05/07:30pm 24.7 20.0 19.8 74 3.2 SSE 44 52 24 28 1009.5 1009.4 0.6
05/07:00pm 24.8 18.6 19.2 71 3.6 SSE 50 61 27 33 1009.1 1009.0 0.6
05/06:30pm 25.1 19.6 19.7 72 3.5 SSE 48 56 26 30 1008.8 1008.7 0.6
05/06:00pm 24.8 18.4 19.6 73 3.4 SSE 52 67 28 36 1008.6 1008.5 0.6
05/05:30pm 24.8 19.6 20.5 77 2.8 SSE 48 56 26 30 1008.3 1008.2 0.6
05/05:00pm 24.1 19.0 20.6 81 2.3 SSE 48 56 26 30 1008.1 1008.0 0.6
05/04:30pm 25.1 19.4 20.1 74 3.2 SSE 50 59 27 32 1007.8 1007.7 0.2
05/04:00pm 25.5 20.3 19.6 70 3.8 SSE 46 54 25 29 1007.5 1007.4 0.0
05/03:30pm 26.1 21.1 19.2 65 4.4 SSE 44 54 24 29 1007.6 1007.5 0.0
05/03:00pm 25.6 21.2 20.2 72 3.5 SE 43 52 23 28 1007.8 1007.7 0.0
05/02:30pm 25.3 20.8 19.9 72 3.5 SSE 43 50 23 27 1007.9 1007.8 0.0
05/02:00pm 26.0 20.8 19.6 68 4.1 SSE 46 54 25 29 1008.3 1008.2 0.0
05/01:30pm 26.2 21.3 19.1 65 4.6 SSE 43 52 23 28 1008.4 1008.3 0.0
05/01:00pm 26.6 22.0 19.7 66 4.5 SSE 43 50 23 27 1008.7 1008.6 0.0
05/12:30pm 26.1 22.2 19.5 67 4.3 SSE 39 48 21 26 1008.8 1008.7 0.0
05/12:00pm 25.9 20.8 19.1 66 4.4 SSE 44 52 24 28 1009.0 1008.9 0.0
05/11:30am 26.2 21.2 18.9 64 4.7 SSE 43 50 23 27 1009.3 1009.2 0.0
05/11:00am 26.2 21.7 19.1 65 4.6 SSE 41 48 22 26 1009.2 1009.1 0.0
05/10:30am 25.9 21.9 18.6 64 4.6 SSE 37 46 20 25 1009.5 1009.4 0.0
05/10:00am 25.6 23.1 18.8 66 4.3 SSE 30 35 16 19 1009.5 1009.4 0.0
05/09:30am 25.7 23.1 18.6 65 4.5 SSE 30 33 16 18 1009.2 1009.1 0.0
05/09:00am 25.1 24.6 19.2 70 3.8 S 20 30 11 16 1009.2 1009.1 10.6
05/08:30am 24.7 24.1 18.9 70 3.7 S 20 32 11 17 1009.1 1009.0 10.6
05/08:00am 24.1 22.6 18.5 71 3.5 S 24 28 13 15 1008.8 1008.7 10.6
05/07:30am 24.0 23.5 19.1 74 3.1 S 20 24 11 13 1008.5 1008.4 10.6
05/07:00am 23.3 23.3 19.0 77 2.7 S 17 24 9 13 1008.3 1008.2 10.6
05/06:30am 23.3 23.0 19.2 78 2.6 S 19 22 10 12 1007.9 1007.8 10.6
05/06:00am 23.0 22.5 19.0 78 2.5 S 20 26 11 14 1007.3 1007.2 10.6
05/05:30am 23.0 22.5 19.0 78 2.5 S 20 28 11 15 1007.0 1006.9 10.6
05/05:00am 23.0 22.2 19.2 79 2.4 S 22 30 12 16 1006.5 1006.4 10.6
05/04:30am 22.9 23.0 19.1 79 2.4 S 17 26 9 14 1006.2 1006.1 10.6
05/04:00am 22.6 22.7 19.2 81 2.2 SSW 17 26 9 14 1006.2 1006.1 10.6
05/03:30am 22.5 22.5 18.9 80 2.3 S 17 22 9 12 1006.3 1006.2 10.6
05/03:00am 22.4 23.1 18.8 80 2.3 SSW 13 19 7 10 1006.1 1006.0 10.6
05/02:30am 22.5 23.1 18.7 79 2.4 SSW 13 17 7 9 1006.2 1006.1 10.6
05/02:00am 22.7 23.1 19.1 80 2.3 S 15 20 8 11 1006.6 1006.5 10.6
05/01:30am 22.3 23.0 18.9 81 2.1 SW 13 19 7 10 1006.8 1006.7 10.6
05/01:00am 22.1 22.8 18.9 82 2.0 SSW 13 17 7 9 1007.1 1007.0 10.6
05/12:30am 22.2 22.6 19.0 82 2.0 SSW 15 20 8 11 1007.6 1007.5 10.6
05/12:00am 22.3 23.1 19.1 82 2.0 SSW 13 17 7 9 1007.8 1007.7 10.6
 
Date/Time
EST
Temp
°C
App
Temp
°C
Dew
Point
Rel
Hum
%
Delta-T
°C
Wind Press
QNH
hPa
Press
MSL
hPa
Rain
since 9 am
mm
Dir
 
Spd
km/h
Gust
km/h
Spd
kts
Gust
kts
04/11:30pm 22.2 23.4 19.0 82 2.0 SW 11 15 6 8 1008.3 1008.2 10.6

Other Formats:

Comma delimited format used in spreadsheet applications
http://www.bom.gov.au/fwo/IDQ60801/IDQ60801.95591.axf

JavaScript Object Notation format (JSON) in row-major order
http://www.bom.gov.au/fwo/IDQ60801/IDQ60801.95591.json